Terminal Aerodrome Forecast
Issued by NWS

Home | Current Version | Previous Version | Text Only | Print | Product List | Glossary On
Versions: 1 2 3 4 5 6 7 8 9 10 11 12 13 14 15 16 17 18 19 20 21 22 23 24 25 26 27
000
FTUS41 KOKX 220548
TAFHPN
TAF
KHPN 220548Z 2206/2306 VRB03KT P6SM SCT040 SCT250
     FM220800 VRB03KT 6SM BR VCSH SCT010 SCT250
      TEMPO 2209/2213 4SM BR BKN010
     FM221400 22007KT 6SM HZ FEW020 BKN250
     FM221700 20010KT 6SM HZ SCT050 BKN250
     FM222000 19012G20KT P6SM SCT050 BKN250
     FM230200 20012G20KT P6SM VCSH SCT015 BKN050 PROB30 2303/2306
      5SM TSRA BKN025 BKN050CB
      AMD NOT SKED=

USA.gov is the U.S. government's official web portal to all federal, state and local government web resources and services.